sensor_id;sensor_type;location;lat;lon;timestamp;P1;durP1;ratioP1;P2;durP2;ratioP2
64851;SDS011;56050;55.558;-4.644;2023-03-11T00:03:02;2.10;;;0.90;;
64851;SDS011;56050;55.558;-4.644;2023-03-11T00:05:30;1.65;;;0.70;;
64851;SDS011;56050;55.558;-4.644;2023-03-11T00:07:57;3.58;;;0.70;;
64851;SDS011;56050;55.558;-4.644;2023-03-11T00:10:27;0.95;;;0.65;;
64851;SDS011;56050;55.558;-4.644;2023-03-11T00:12:55;0.80;;;0.63;;
64851;SDS011;56050;55.558;-4.644;2023-03-11T00:17:47;1.20;;;0.67;;
64851;SDS011;56050;55.558;-4.644;2023-03-11T00:20:17;2.90;;;0.50;;
64851;SDS011;56050;55.558;-4.644;2023-03-11T00:22:45;4.57;;;0.98;;
64851;SDS011;56050;55.558;-4.644;2023-03-11T00:25:11;0.93;;;0.55;;
64851;SDS011;56050;55.558;-4.644;2023-03-11T00:30:03;2.17;;;1.07;;
64851;SDS011;56050;55.558;-4.644;2023-03-11T00:32:29;1.42;;;0.90;;
64851;SDS011;56050;55.558;-4.644;2023-03-11T00:34:54;2.17;;;0.63;;
64851;SDS011;56050;55.558;-4.644;2023-03-11T00:37:20;2.08;;;0.68;;
64851;SDS011;56050;55.558;-4.644;2023-03-11T00:39:45;1.92;;;0.50;;
64851;SDS011;56050;55.558;-4.644;2023-03-11T00:42:11;1.23;;;0.68;;
64851;SDS011;56050;55.558;-4.644;2023-03-11T00:44:36;4.85;;;0.65;;
64851;SDS011;56050;55.558;-4.644;2023-03-11T00:47:02;1.17;;;0.85;;
64851;SDS011;56050;55.558;-4.644;2023-03-11T00:49:27;1.13;;;0.82;;
64851;SDS011;56050;55.558;-4.644;2023-03-11T00:51:53;1.70;;;0.88;;
64851;SDS011;56050;55.558;-4.644;2023-03-11T00:54:18;1.77;;;0.82;;
64851;SDS011;56050;55.558;-4.644;2023-03-11T00:56:43;4.20;;;1.27;;
64851;SDS011;56050;55.558;-4.644;2023-03-11T00:59:09;0.80;;;0.50;;
64851;SDS011;56050;55.558;-4.644;2023-03-11T01:01:34;1.42;;;0.93;;
64851;SDS011;56050;55.558;-4.644;2023-03-11T01:04:00;2.13;;;0.63;;
64851;SDS011;56050;55.558;-4.644;2023-03-11T01:06:26;1.48;;;0.70;;
64851;SDS011;56050;55.558;-4.644;2023-03-11T01:08:51;3.05;;;0.63;;
64851;SDS011;56050;55.558;-4.644;2023-03-11T01:11:16;1.80;;;0.77;;
64851;SDS011;56050;55.558;-4.644;2023-03-11T01:13:42;1.95;;;1.27;;
64851;SDS011;56050;55.558;-4.644;2023-03-11T01:16:07;2.05;;;0.88;;
64851;SDS011;56050;55.558;-4.644;2023-03-11T01:18:33;2.67;;;0.68;;
64851;SDS011;56050;55.558;-4.644;2023-03-11T01:20:59;1.67;;;0.80;;
64851;SDS011;56050;55.558;-4.644;2023-03-11T01:23:25;2.10;;;0.73;;
64851;SDS011;56050;55.558;-4.644;2023-03-11T01:25:50;1.10;;;0.50;;
64851;SDS011;56050;55.558;-4.644;2023-03-11T01:28:16;5.53;;;0.80;;
64851;SDS011;56050;55.558;-4.644;2023-03-11T01:30:41;1.13;;;0.68;;
64851;SDS011;56050;55.558;-4.644;2023-03-11T01:33:08;1.58;;;0.60;;
64851;SDS011;56050;55.558;-4.644;2023-03-11T01:35:39;1.15;;;0.68;;
64851;SDS011;56050;55.558;-4.644;2023-03-11T01:38:06;1.92;;;0.80;;
64851;SDS011;56050;55.558;-4.644;2023-03-11T01:40:42;2.35;;;0.98;;
64851;SDS011;56050;55.558;-4.644;2023-03-11T01:48:31;3.65;;;0.90;;
64851;SDS011;56050;55.558;-4.644;2023-03-11T01:50:57;6.15;;;1.15;;
64851;SDS011;56050;55.558;-4.644;2023-03-11T01:53:23;3.55;;;1.27;;
64851;SDS011;56050;55.558;-4.644;2023-03-11T01:58:22;1.63;;;1.05;;
64851;SDS011;56050;55.558;-4.644;2023-03-11T02:00:50;3.30;;;0.70;;
64851;SDS011;56050;55.558;-4.644;2023-03-11T02:03:27;1.85;;;1.00;;
64851;SDS011;56050;55.558;-4.644;2023-03-11T02:05:55;3.45;;;0.75;;
64851;SDS011;56050;55.558;-4.644;2023-03-11T02:08:23;1.73;;;0.38;;
64851;SDS011;56050;55.558;-4.644;2023-03-11T02:10:49;1.55;;;0.93;;
64851;SDS011;56050;55.558;-4.644;2023-03-11T02:13:17;1.50;;;0.70;;
64851;SDS011;56050;55.558;-4.644;2023-03-11T02:15:43;1.65;;;0.90;;
64851;SDS011;56050;55.558;-4.644;2023-03-11T02:18:09;1.70;;;0.77;;
64851;SDS011;56050;55.558;-4.644;2023-03-11T02:25:52;0.95;;;0.60;;
64851;SDS011;56050;55.558;-4.644;2023-03-11T02:28:24;1.27;;;0.55;;
64851;SDS011;56050;55.558;-4.644;2023-03-11T02:30:52;2.35;;;0.73;;
64851;SDS011;56050;55.558;-4.644;2023-03-11T02:33:19;2.42;;;0.73;;
64851;SDS011;56050;55.558;-4.644;2023-03-11T02:35:47;1.20;;;0.70;;
64851;SDS011;56050;55.558;-4.644;2023-03-11T02:38:12;1.40;;;0.55;;
64851;SDS011;56050;55.558;-4.644;2023-03-11T02:41:00;2.65;;;0.90;;
64851;SDS011;56050;55.558;-4.644;2023-03-11T02:43:37;1.52;;;0.57;;
64851;SDS011;56050;55.558;-4.644;2023-03-11T02:46:06;1.30;;;0.52;;
64851;SDS011;56050;55.558;-4.644;2023-03-11T02:48:34;3.42;;;0.98;;
64851;SDS011;56050;55.558;-4.644;2023-03-11T02:51:01;1.45;;;0.70;;
64851;SDS011;56050;55.558;-4.644;2023-03-11T02:53:27;1.65;;;0.77;;
64851;SDS011;56050;55.558;-4.644;2023-03-11T02:55:55;2.55;;;0.70;;
64851;SDS011;56050;55.558;-4.644;2023-03-11T02:58:21;2.13;;;0.90;;
64851;SDS011;56050;55.558;-4.644;2023-03-11T03:00:46;1.80;;;0.50;;
64851;SDS011;56050;55.558;-4.644;2023-03-11T03:03:12;1.23;;;0.68;;
64851;SDS011;56050;55.558;-4.644;2023-03-11T03:05:37;2.45;;;1.70;;
64851;SDS011;56050;55.558;-4.644;2023-03-11T03:08:03;1.02;;;0.68;;
64851;SDS011;56050;55.558;-4.644;2023-03-11T03:10:28;1.67;;;0.95;;
64851;SDS011;56050;55.558;-4.644;2023-03-11T03:15:20;1.47;;;1.00;;
64851;SDS011;56050;55.558;-4.644;2023-03-11T03:17:45;2.10;;;1.30;;
64851;SDS011;56050;55.558;-4.644;2023-03-11T03:20:11;1.52;;;0.60;;
64851;SDS011;56050;55.558;-4.644;2023-03-11T03:22:38;1.85;;;0.43;;
64851;SDS011;56050;55.558;-4.644;2023-03-11T03:25:05;2.15;;;0.80;;
64851;SDS011;56050;55.558;-4.644;2023-03-11T03:29:57;1.48;;;0.50;;
64851;SDS011;56050;55.558;-4.644;2023-03-11T03:32:23;1.92;;;0.65;;
64851;SDS011;56050;55.558;-4.644;2023-03-11T03:34:48;4.07;;;0.93;;
64851;SDS011;56050;55.558;-4.644;2023-03-11T03:37:14;2.25;;;1.33;;
64851;SDS011;56050;55.558;-4.644;2023-03-11T03:39:39;1.45;;;0.50;;
64851;SDS011;56050;55.558;-4.644;2023-03-11T03:42:04;1.83;;;0.88;;
64851;SDS011;56050;55.558;-4.644;2023-03-11T03:44:30;1.60;;;0.80;;
64851;SDS011;56050;55.558;-4.644;2023-03-11T03:46:56;1.45;;;1.05;;
64851;SDS011;56050;55.558;-4.644;2023-03-11T03:49:21;0.80;;;0.70;;
64851;SDS011;56050;55.558;-4.644;2023-03-11T03:51:46;2.45;;;0.80;;
64851;SDS011;56050;55.558;-4.644;2023-03-11T03:54:12;1.90;;;0.77;;
64851;SDS011;56050;55.558;-4.644;2023-03-11T03:56:38;1.15;;;0.60;;
64851;SDS011;56050;55.558;-4.644;2023-03-11T03:59:04;1.48;;;0.80;;
64851;SDS011;56050;55.558;-4.644;2023-03-11T04:01:29;0.90;;;0.80;;
64851;SDS011;56050;55.558;-4.644;2023-03-11T04:03:55;5.90;;;0.75;;
64851;SDS011;56050;55.558;-4.644;2023-03-11T04:06:21;1.13;;;0.60;;
64851;SDS011;56050;55.558;-4.644;2023-03-11T04:08:52;1.10;;;0.43;;
64851;SDS011;56050;55.558;-4.644;2023-03-11T04:11:19;1.13;;;0.65;;
64851;SDS011;56050;55.558;-4.644;2023-03-11T04:16:20;4.57;;;0.77;;
64851;SDS011;56050;55.558;-4.644;2023-03-11T04:18:47;1.75;;;1.15;;
64851;SDS011;56050;55.558;-4.644;2023-03-11T04:21:13;1.83;;;0.80;;
64851;SDS011;56050;55.558;-4.644;2023-03-11T04:23:38;1.95;;;1.83;;
64851;SDS011;56050;55.558;-4.644;2023-03-11T04:26:04;1.95;;;0.80;;
64851;SDS011;56050;55.558;-4.644;2023-03-11T04:28:29;1.17;;;0.75;;
64851;SDS011;56050;55.558;-4.644;2023-03-11T04:30:55;1.10;;;0.77;;
64851;SDS011;56050;55.558;-4.644;2023-03-11T04:33:20;2.00;;;0.93;;
64851;SDS011;56050;55.558;-4.644;2023-03-11T04:35:46;1.45;;;0.93;;
64851;SDS011;56050;55.558;-4.644;2023-03-11T04:38:11;2.40;;;0.70;;
64851;SDS011;56050;55.558;-4.644;2023-03-11T04:40:37;2.20;;;1.25;;
64851;SDS011;56050;55.558;-4.644;2023-03-11T04:43:03;2.28;;;0.75;;
64851;SDS011;56050;55.558;-4.644;2023-03-11T04:45:29;2.25;;;0.70;;
64851;SDS011;56050;55.558;-4.644;2023-03-11T04:47:54;1.75;;;0.82;;
64851;SDS011;56050;55.558;-4.644;2023-03-11T04:50:20;1.77;;;0.68;;
64851;SDS011;56050;55.558;-4.644;2023-03-11T04:52:46;2.25;;;0.60;;
64851;SDS011;56050;55.558;-4.644;2023-03-11T04:55:12;3.72;;;0.80;;
64851;SDS011;56050;55.558;-4.644;2023-03-11T04:57:38;2.70;;;1.55;;
64851;SDS011;56050;55.558;-4.644;2023-03-11T05:00:04;1.58;;;0.63;;
64851;SDS011;56050;55.558;-4.644;2023-03-11T05:02:33;1.65;;;0.77;;
64851;SDS011;56050;55.558;-4.644;2023-03-11T05:04:59;1.52;;;0.82;;
64851;SDS011;56050;55.558;-4.644;2023-03-11T05:07:25;2.42;;;0.80;;
64851;SDS011;56050;55.558;-4.644;2023-03-11T05:09:51;2.85;;;1.10;;
64851;SDS011;56050;55.558;-4.644;2023-03-11T05:12:16;2.15;;;1.10;;
64851;SDS011;56050;55.558;-4.644;2023-03-11T05:14:42;3.75;;;0.90;;
64851;SDS011;56050;55.558;-4.644;2023-03-11T05:17:07;2.45;;;1.50;;
64851;SDS011;56050;55.558;-4.644;2023-03-11T05:19:34;1.67;;;1.15;;
64851;SDS011;56050;55.558;-4.644;2023-03-11T05:22:00;1.88;;;1.23;;
64851;SDS011;56050;55.558;-4.644;2023-03-11T05:24:29;3.00;;;0.93;;
64851;SDS011;56050;55.558;-4.644;2023-03-11T05:26:55;1.55;;;0.85;;
64851;SDS011;56050;55.558;-4.644;2023-03-11T05:29:21;4.22;;;0.80;;
64851;SDS011;56050;55.558;-4.644;2023-03-11T05:31:47;2.63;;;0.90;;
64851;SDS011;56050;55.558;-4.644;2023-03-11T05:34:13;4.50;;;1.25;;
64851;SDS011;56050;55.558;-4.644;2023-03-11T05:36:38;2.58;;;0.73;;
64851;SDS011;56050;55.558;-4.644;2023-03-11T05:39:04;2.83;;;1.05;;
64851;SDS011;56050;55.558;-4.644;2023-03-11T05:41:29;2.05;;;1.02;;
64851;SDS011;56050;55.558;-4.644;2023-03-11T05:43:55;3.05;;;1.10;;
64851;SDS011;56050;55.558;-4.644;2023-03-11T05:46:20;2.08;;;1.00;;
64851;SDS011;56050;55.558;-4.644;2023-03-11T05:48:46;2.92;;;1.00;;
64851;SDS011;56050;55.558;-4.644;2023-03-11T05:51:12;2.15;;;1.33;;
64851;SDS011;56050;55.558;-4.644;2023-03-11T05:53:37;4.78;;;1.17;;
64851;SDS011;56050;55.558;-4.644;2023-03-11T05:56:05;2.65;;;1.20;;
64851;SDS011;56050;55.558;-4.644;2023-03-11T05:58:31;3.75;;;1.38;;
64851;SDS011;56050;55.558;-4.644;2023-03-11T06:00:57;3.20;;;0.93;;
64851;SDS011;56050;55.558;-4.644;2023-03-11T06:03:25;2.20;;;0.77;;
64851;SDS011;56050;55.558;-4.644;2023-03-11T06:05:51;1.92;;;1.05;;
64851;SDS011;56050;55.558;-4.644;2023-03-11T06:08:17;4.32;;;1.95;;
64851;SDS011;56050;55.558;-4.644;2023-03-11T06:10:43;3.38;;;1.35;;
64851;SDS011;56050;55.558;-4.644;2023-03-11T06:13:09;2.25;;;1.45;;
64851;SDS011;56050;55.558;-4.644;2023-03-11T06:15:35;4.43;;;1.25;;
64851;SDS011;56050;55.558;-4.644;2023-03-11T06:18:02;2.67;;;1.63;;
64851;SDS011;56050;55.558;-4.644;2023-03-11T06:20:27;4.85;;;1.45;;
64851;SDS011;56050;55.558;-4.644;2023-03-11T06:22:53;5.25;;;1.52;;
64851;SDS011;56050;55.558;-4.644;2023-03-11T06:25:19;3.88;;;1.85;;
64851;SDS011;56050;55.558;-4.644;2023-03-11T06:27:47;3.90;;;1.50;;
64851;SDS011;56050;55.558;-4.644;2023-03-11T06:30:15;3.35;;;1.88;;
64851;SDS011;56050;55.558;-4.644;2023-03-11T06:32:45;3.90;;;1.17;;
64851;SDS011;56050;55.558;-4.644;2023-03-11T06:35:11;4.60;;;1.77;;
64851;SDS011;56050;55.558;-4.644;2023-03-11T06:37:37;4.00;;;1.23;;
64851;SDS011;56050;55.558;-4.644;2023-03-11T06:40:03;3.78;;;1.42;;
64851;SDS011;56050;55.558;-4.644;2023-03-11T06:42:33;3.28;;;1.77;;
64851;SDS011;56050;55.558;-4.644;2023-03-11T06:44:59;2.80;;;1.13;;
64851;SDS011;56050;55.558;-4.644;2023-03-11T06:47:25;4.50;;;1.90;;
64851;SDS011;56050;55.558;-4.644;2023-03-11T06:49:50;2.85;;;1.83;;
64851;SDS011;56050;55.558;-4.644;2023-03-11T06:52:16;4.93;;;1.50;;
64851;SDS011;56050;55.558;-4.644;2023-03-11T06:54:42;4.15;;;1.50;;
64851;SDS011;56050;55.558;-4.644;2023-03-11T06:57:08;4.32;;;1.80;;
64851;SDS011;56050;55.558;-4.644;2023-03-11T06:59:34;5.45;;;1.63;;
64851;SDS011;56050;55.558;-4.644;2023-03-11T07:02:00;5.97;;;1.98;;
64851;SDS011;56050;55.558;-4.644;2023-03-11T07:04:27;4.75;;;2.10;;
64851;SDS011;56050;55.558;-4.644;2023-03-11T07:06:53;2.83;;;1.08;;
64851;SDS011;56050;55.558;-4.644;2023-03-11T07:09:19;4.57;;;1.85;;
64851;SDS011;56050;55.558;-4.644;2023-03-11T07:11:46;8.77;;;1.88;;
64851;SDS011;56050;55.558;-4.644;2023-03-11T07:14:12;6.95;;;1.90;;
64851;SDS011;56050;55.558;-4.644;2023-03-11T07:16:37;5.85;;;4.47;;
64851;SDS011;56050;55.558;-4.644;2023-03-11T07:19:03;4.68;;;4.18;;
64851;SDS011;56050;55.558;-4.644;2023-03-11T07:21:29;6.05;;;1.88;;
64851;SDS011;56050;55.558;-4.644;2023-03-11T07:23:57;5.63;;;2.78;;
64851;SDS011;56050;55.558;-4.644;2023-03-11T07:26:24;4.13;;;1.45;;
64851;SDS011;56050;55.558;-4.644;2023-03-11T07:28:52;4.20;;;1.50;;
64851;SDS011;56050;55.558;-4.644;2023-03-11T07:31:19;5.65;;;1.63;;
64851;SDS011;56050;55.558;-4.644;2023-03-11T07:33:47;5.82;;;1.60;;
64851;SDS011;56050;55.558;-4.644;2023-03-11T07:36:14;5.43;;;2.42;;
64851;SDS011;56050;55.558;-4.644;2023-03-11T07:38:41;6.85;;;2.25;;
64851;SDS011;56050;55.558;-4.644;2023-03-11T07:43:32;5.05;;;2.25;;
64851;SDS011;56050;55.558;-4.644;2023-03-11T07:46:16;4.03;;;1.40;;
64851;SDS011;56050;55.558;-4.644;2023-03-11T07:48:47;4.93;;;2.50;;
64851;SDS011;56050;55.558;-4.644;2023-03-11T07:51:17;5.47;;;2.13;;
64851;SDS011;56050;55.558;-4.644;2023-03-11T07:53:43;4.90;;;1.80;;
64851;SDS011;56050;55.558;-4.644;2023-03-11T07:56:09;6.07;;;1.88;;
64851;SDS011;56050;55.558;-4.644;2023-03-11T07:58:36;5.90;;;1.67;;
64851;SDS011;56050;55.558;-4.644;2023-03-11T08:01:06;4.63;;;1.52;;
64851;SDS011;56050;55.558;-4.644;2023-03-11T08:03:36;4.65;;;1.70;;
64851;SDS011;56050;55.558;-4.644;2023-03-11T08:06:10;6.53;;;1.50;;
64851;SDS011;56050;55.558;-4.644;2023-03-11T08:08:39;4.72;;;1.73;;
64851;SDS011;56050;55.558;-4.644;2023-03-11T08:11:05;4.78;;;1.65;;
64851;SDS011;56050;55.558;-4.644;2023-03-11T08:13:31;7.07;;;2.20;;
64851;SDS011;56050;55.558;-4.644;2023-03-11T08:15:57;6.75;;;1.85;;
64851;SDS011;56050;55.558;-4.644;2023-03-11T08:18:22;4.10;;;1.98;;
64851;SDS011;56050;55.558;-4.644;2023-03-11T08:20:48;4.20;;;1.90;;
64851;SDS011;56050;55.558;-4.644;2023-03-11T08:23:14;7.38;;;2.80;;
64851;SDS011;56050;55.558;-4.644;2023-03-11T08:25:39;4.65;;;1.85;;
64851;SDS011;56050;55.558;-4.644;2023-03-11T08:28:05;6.57;;;2.00;;
64851;SDS011;56050;55.558;-4.644;2023-03-11T08:32:57;4.50;;;1.50;;
64851;SDS011;56050;55.558;-4.644;2023-03-11T08:35:22;8.00;;;4.50;;
64851;SDS011;56050;55.558;-4.644;2023-03-11T08:37:48;7.32;;;2.22;;
64851;SDS011;56050;55.558;-4.644;2023-03-11T08:40:13;5.65;;;2.15;;
64851;SDS011;56050;55.558;-4.644;2023-03-11T08:42:39;6.13;;;1.92;;
64851;SDS011;56050;55.558;-4.644;2023-03-11T08:45:05;5.57;;;2.30;;
64851;SDS011;56050;55.558;-4.644;2023-03-11T08:47:34;4.55;;;1.92;;
64851;SDS011;56050;55.558;-4.644;2023-03-11T08:50:02;4.78;;;1.33;;
64851;SDS011;56050;55.558;-4.644;2023-03-11T08:52:29;6.22;;;1.98;;
64851;SDS011;56050;55.558;-4.644;2023-03-11T08:54:54;5.32;;;2.22;;
64851;SDS011;56050;55.558;-4.644;2023-03-11T08:57:20;4.85;;;2.03;;
64851;SDS011;56050;55.558;-4.644;2023-03-11T08:59:46;5.53;;;2.15;;
64851;SDS011;56050;55.558;-4.644;2023-03-11T09:02:11;6.38;;;2.20;;
64851;SDS011;56050;55.558;-4.644;2023-03-11T09:04:36;4.93;;;3.88;;
64851;SDS011;56050;55.558;-4.644;2023-03-11T09:07:02;6.82;;;2.00;;
64851;SDS011;56050;55.558;-4.644;2023-03-11T09:09:27;7.15;;;2.70;;
64851;SDS011;56050;55.558;-4.644;2023-03-11T09:11:53;7.53;;;1.83;;
64851;SDS011;56050;55.558;-4.644;2023-03-11T09:14:18;5.90;;;2.25;;
64851;SDS011;56050;55.558;-4.644;2023-03-11T09:16:44;5.07;;;2.22;;
64851;SDS011;56050;55.558;-4.644;2023-03-11T09:19:09;4.93;;;1.95;;
64851;SDS011;56050;55.558;-4.644;2023-03-11T09:21:35;4.40;;;1.48;;
64851;SDS011;56050;55.558;-4.644;2023-03-11T09:24:02;4.60;;;1.63;;
64851;SDS011;56050;55.558;-4.644;2023-03-11T09:26:29;5.65;;;1.73;;
64851;SDS011;56050;55.558;-4.644;2023-03-11T09:28:55;3.45;;;1.38;;
64851;SDS011;56050;55.558;-4.644;2023-03-11T09:31:21;3.58;;;1.23;;
64851;SDS011;56050;55.558;-4.644;2023-03-11T09:36:15;4.35;;;1.35;;
64851;SDS011;56050;55.558;-4.644;2023-03-11T09:38:42;7.40;;;1.55;;
64851;SDS011;56050;55.558;-4.644;2023-03-11T09:43:37;5.37;;;1.83;;
64851;SDS011;56050;55.558;-4.644;2023-03-11T09:52:23;4.55;;;1.50;;
64851;SDS011;56050;55.558;-4.644;2023-03-11T09:54:51;3.75;;;1.95;;
64851;SDS011;56050;55.558;-4.644;2023-03-11T09:57:20;5.97;;;1.08;;
64851;SDS011;56050;55.558;-4.644;2023-03-11T09:59:49;3.70;;;1.60;;
64851;SDS011;56050;55.558;-4.644;2023-03-11T10:07:39;2.58;;;1.13;;
64851;SDS011;56050;55.558;-4.644;2023-03-11T10:10:11;4.80;;;1.20;;
64851;SDS011;56050;55.558;-4.644;2023-03-11T10:15:13;4.07;;;1.55;;
64851;SDS011;56050;55.558;-4.644;2023-03-11T10:20:25;2.53;;;1.10;;
64851;SDS011;56050;55.558;-4.644;2023-03-11T10:26:18;3.17;;;1.30;;
64851;SDS011;56050;55.558;-4.644;2023-03-11T10:28:49;2.08;;;1.02;;
64851;SDS011;56050;55.558;-4.644;2023-03-11T10:31:20;3.45;;;1.02;;
64851;SDS011;56050;55.558;-4.644;2023-03-11T10:36:24;5.00;;;1.20;;
64851;SDS011;56050;55.558;-4.644;2023-03-11T10:38:59;3.60;;;1.20;;
64851;SDS011;56050;55.558;-4.644;2023-03-11T10:46:45;4.00;;;1.23;;
64851;SDS011;56050;55.558;-4.644;2023-03-11T10:49:14;3.25;;;2.90;;
64851;SDS011;56050;55.558;-4.644;2023-03-11T10:54:19;2.10;;;1.25;;
64851;SDS011;56050;55.558;-4.644;2023-03-11T10:56:55;2.47;;;0.88;;
64851;SDS011;56050;55.558;-4.644;2023-03-11T10:59:24;3.42;;;1.23;;
64851;SDS011;56050;55.558;-4.644;2023-03-11T11:01:57;1.70;;;0.80;;
64851;SDS011;56050;55.558;-4.644;2023-03-11T11:04:30;2.72;;;0.73;;
64851;SDS011;56050;55.558;-4.644;2023-03-11T11:12:54;3.67;;;0.80;;
64851;SDS011;56050;55.558;-4.644;2023-03-11T11:15:34;1.63;;;0.75;;
64851;SDS011;56050;55.558;-4.644;2023-03-11T11:18:17;2.78;;;1.02;;
64851;SDS011;56050;55.558;-4.644;2023-03-11T11:21:00;2.80;;;0.82;;
64851;SDS011;56050;55.558;-4.644;2023-03-11T11:23:32;3.00;;;0.90;;
64851;SDS011;56050;55.558;-4.644;2023-03-11T11:26:00;1.20;;;0.70;;
64851;SDS011;56050;55.558;-4.644;2023-03-11T11:28:29;1.75;;;0.82;;
64851;SDS011;56050;55.558;-4.644;2023-03-11T11:30:57;1.58;;;0.75;;
64851;SDS011;56050;55.558;-4.644;2023-03-11T11:33:29;2.70;;;0.82;;
64851;SDS011;56050;55.558;-4.644;2023-03-11T11:36:10;4.72;;;0.45;;
64851;SDS011;56050;55.558;-4.644;2023-03-11T11:38:39;2.53;;;0.57;;
64851;SDS011;56050;55.558;-4.644;2023-03-11T11:41:05;2.75;;;0.80;;
64851;SDS011;56050;55.558;-4.644;2023-03-11T11:46:36;1.65;;;0.70;;
64851;SDS011;56050;55.558;-4.644;2023-03-11T11:49:19;2.70;;;0.70;;
64851;SDS011;56050;55.558;-4.644;2023-03-11T11:51:51;1.88;;;0.70;;
64851;SDS011;56050;55.558;-4.644;2023-03-11T11:57:18;2.35;;;1.00;;
64851;SDS011;56050;55.558;-4.644;2023-03-11T11:59:45;2.38;;;1.13;;
64851;SDS011;56050;55.558;-4.644;2023-03-11T12:10:44;1.98;;;1.02;;
64851;SDS011;56050;55.558;-4.644;2023-03-11T12:19:03;4.28;;;1.40;;
64851;SDS011;56050;55.558;-4.644;2023-03-11T12:27:24;4.40;;;1.25;;
64851;SDS011;56050;55.558;-4.644;2023-03-11T12:29:54;2.38;;;0.85;;
64851;SDS011;56050;55.558;-4.644;2023-03-11T12:32:30;3.67;;;0.95;;
64851;SDS011;56050;55.558;-4.644;2023-03-11T12:35:02;2.20;;;0.93;;
64851;SDS011;56050;55.558;-4.644;2023-03-11T12:37:39;2.35;;;0.65;;
64851;SDS011;56050;55.558;-4.644;2023-03-11T12:42:49;2.30;;;1.15;;
64851;SDS011;56050;55.558;-4.644;2023-03-11T12:50:56;3.53;;;1.60;;
64851;SDS011;56050;55.558;-4.644;2023-03-11T13:04:58;1.33;;;0.98;;
64851;SDS011;56050;55.558;-4.644;2023-03-11T13:07:57;2.65;;;1.08;;
64851;SDS011;56050;55.558;-4.644;2023-03-11T13:18:36;1.73;;;0.98;;
64851;SDS011;56050;55.558;-4.644;2023-03-11T13:21:02;2.97;;;1.20;;
64851;SDS011;56050;55.558;-4.644;2023-03-11T13:23:48;3.75;;;1.05;;
64851;SDS011;56050;55.558;-4.644;2023-03-11T13:31:57;2.38;;;0.80;;
64851;SDS011;56050;55.558;-4.644;2023-03-11T13:34:37;1.77;;;0.70;;
64851;SDS011;56050;55.558;-4.644;2023-03-11T13:37:22;2.70;;;1.27;;
64851;SDS011;56050;55.558;-4.644;2023-03-11T13:42:26;5.53;;;1.38;;
64851;SDS011;56050;55.558;-4.644;2023-03-11T13:44:55;2.08;;;1.77;;
64851;SDS011;56050;55.558;-4.644;2023-03-11T13:47:22;2.58;;;1.35;;
64851;SDS011;56050;55.558;-4.644;2023-03-11T13:52:26;4.88;;;1.67;;
64851;SDS011;56050;55.558;-4.644;2023-03-11T13:55:06;3.05;;;1.25;;
64851;SDS011;56050;55.558;-4.644;2023-03-11T13:57:39;2.25;;;1.55;;
64851;SDS011;56050;55.558;-4.644;2023-03-11T14:00:15;4.05;;;0.68;;
64851;SDS011;56050;55.558;-4.644;2023-03-11T14:02:55;1.70;;;0.82;;
64851;SDS011;56050;55.558;-4.644;2023-03-11T14:05:24;1.75;;;0.80;;
64851;SDS011;56050;55.558;-4.644;2023-03-11T14:07:52;2.95;;;1.23;;
64851;SDS011;56050;55.558;-4.644;2023-03-11T14:10:22;2.67;;;0.80;;
64851;SDS011;56050;55.558;-4.644;2023-03-11T14:12:50;2.88;;;0.80;;
64851;SDS011;56050;55.558;-4.644;2023-03-11T14:15:23;3.08;;;0.90;;
64851;SDS011;56050;55.558;-4.644;2023-03-11T14:17:51;2.08;;;0.73;;
64851;SDS011;56050;55.558;-4.644;2023-03-11T14:20:19;2.30;;;0.70;;
64851;SDS011;56050;55.558;-4.644;2023-03-11T14:22:49;1.33;;;0.77;;
64851;SDS011;56050;55.558;-4.644;2023-03-11T14:25:24;0.93;;;0.32;;
64851;SDS011;56050;55.558;-4.644;2023-03-11T14:27:55;1.42;;;0.82;;
64851;SDS011;56050;55.558;-4.644;2023-03-11T14:30:27;2.22;;;0.80;;
64851;SDS011;56050;55.558;-4.644;2023-03-11T14:32:54;1.30;;;0.47;;
64851;SDS011;56050;55.558;-4.644;2023-03-11T14:35:31;1.33;;;0.47;;
64851;SDS011;56050;55.558;-4.644;2023-03-11T14:37:57;0.95;;;0.45;;
64851;SDS011;56050;55.558;-4.644;2023-03-11T14:43:00;1.88;;;0.80;;
64851;SDS011;56050;55.558;-4.644;2023-03-11T14:45:28;0.73;;;0.50;;
64851;SDS011;56050;55.558;-4.644;2023-03-11T14:47:58;1.95;;;0.50;;
64851;SDS011;56050;55.558;-4.644;2023-03-11T14:50:34;2.03;;;0.52;;
64851;SDS011;56050;55.558;-4.644;2023-03-11T14:53:20;1.38;;;1.00;;
64851;SDS011;56050;55.558;-4.644;2023-03-11T14:55:54;0.60;;;0.40;;
64851;SDS011;56050;55.558;-4.644;2023-03-11T15:01:04;0.50;;;0.50;;
64851;SDS011;56050;55.558;-4.644;2023-03-11T15:03:38;1.23;;;0.50;;
64851;SDS011;56050;55.558;-4.644;2023-03-11T15:06:13;3.30;;;0.70;;
64851;SDS011;56050;55.558;-4.644;2023-03-11T15:08:51;1.35;;;0.57;;
64851;SDS011;56050;55.558;-4.644;2023-03-11T15:11:24;1.45;;;0.80;;
64851;SDS011;56050;55.558;-4.644;2023-03-11T15:13:52;3.63;;;0.80;;
64851;SDS011;56050;55.558;-4.644;2023-03-11T15:16:30;2.55;;;0.70;;
64851;SDS011;56050;55.558;-4.644;2023-03-11T15:19:01;2.33;;;0.75;;
64851;SDS011;56050;55.558;-4.644;2023-03-11T15:21:54;1.40;;;0.65;;
64851;SDS011;56050;55.558;-4.644;2023-03-11T15:24:26;2.10;;;0.63;;
64851;SDS011;56050;55.558;-4.644;2023-03-11T15:26:55;2.03;;;0.75;;
64851;SDS011;56050;55.558;-4.644;2023-03-11T15:29:23;2.42;;;1.05;;
64851;SDS011;56050;55.558;-4.644;2023-03-11T15:31:50;0.88;;;0.45;;
64851;SDS011;56050;55.558;-4.644;2023-03-11T15:46:56;3.05;;;2.80;;
64851;SDS011;56050;55.558;-4.644;2023-03-11T15:49:24;2.42;;;0.70;;
64851;SDS011;56050;55.558;-4.644;2023-03-11T15:51:50;1.00;;;0.43;;
64851;SDS011;56050;55.558;-4.644;2023-03-11T15:56:41;2.53;;;0.60;;
64851;SDS011;56050;55.558;-4.644;2023-03-11T15:59:14;2.90;;;1.05;;
64851;SDS011;56050;55.558;-4.644;2023-03-11T16:01:41;2.05;;;0.70;;
64851;SDS011;56050;55.558;-4.644;2023-03-11T16:06:39;1.02;;;0.82;;
64851;SDS011;56050;55.558;-4.644;2023-03-11T16:09:05;1.50;;;1.05;;
64851;SDS011;56050;55.558;-4.644;2023-03-11T16:13:57;0.90;;;0.87;;
64851;SDS011;56050;55.558;-4.644;2023-03-11T16:16:23;3.53;;;1.30;;
64851;SDS011;56050;55.558;-4.644;2023-03-11T16:21:17;1.50;;;0.73;;
64851;SDS011;56050;55.558;-4.644;2023-03-11T16:23:45;1.92;;;1.33;;
64851;SDS011;56050;55.558;-4.644;2023-03-11T16:26:11;1.80;;;0.88;;
64851;SDS011;56050;55.558;-4.644;2023-03-11T16:28:37;1.45;;;0.70;;
64851;SDS011;56050;55.558;-4.644;2023-03-11T16:33:28;0.73;;;0.43;;
64851;SDS011;56050;55.558;-4.644;2023-03-11T16:35:54;1.98;;;0.70;;
64851;SDS011;56050;55.558;-4.644;2023-03-11T16:40:57;1.75;;;0.80;;
64851;SDS011;56050;55.558;-4.644;2023-03-11T16:43:24;1.40;;;0.40;;
64851;SDS011;56050;55.558;-4.644;2023-03-11T16:45:50;3.53;;;0.82;;
64851;SDS011;56050;55.558;-4.644;2023-03-11T16:50:41;2.00;;;0.50;;
64851;SDS011;56050;55.558;-4.644;2023-03-11T16:55:32;4.10;;;1.53;;
64851;SDS011;56050;55.558;-4.644;2023-03-11T17:00:23;3.20;;;0.87;;
64851;SDS011;56050;55.558;-4.644;2023-03-11T17:02:49;3.47;;;0.88;;
64851;SDS011;56050;55.558;-4.644;2023-03-11T17:05:15;2.42;;;0.80;;
64851;SDS011;56050;55.558;-4.644;2023-03-11T17:10:07;2.30;;;0.80;;
64851;SDS011;56050;55.558;-4.644;2023-03-11T17:12:34;3.80;;;1.27;;
64851;SDS011;56050;55.558;-4.644;2023-03-11T17:15:00;3.80;;;0.75;;
64851;SDS011;56050;55.558;-4.644;2023-03-11T17:19:51;1.75;;;0.73;;
64851;SDS011;56050;55.558;-4.644;2023-03-11T17:24:42;2.93;;;1.97;;
64851;SDS011;56050;55.558;-4.644;2023-03-11T17:29:33;3.07;;;0.90;;
64851;SDS011;56050;55.558;-4.644;2023-03-11T17:34:24;1.42;;;0.77;;
64851;SDS011;56050;55.558;-4.644;2023-03-11T17:36:50;4.20;;;1.45;;
64851;SDS011;56050;55.558;-4.644;2023-03-11T17:39:15;2.78;;;0.80;;
64851;SDS011;56050;55.558;-4.644;2023-03-11T17:41:41;1.95;;;1.00;;
64851;SDS011;56050;55.558;-4.644;2023-03-11T17:44:06;5.88;;;1.20;;
64851;SDS011;56050;55.558;-4.644;2023-03-11T17:49:00;2.45;;;1.30;;
64851;SDS011;56050;55.558;-4.644;2023-03-11T17:53:52;3.30;;;1.07;;